sensor_id;sensor_type;location;lat;lon;timestamp;P1;durP1;ratioP1;P2;durP2;ratioP2
15218;SDS011;15623;53.986;11.676;2023-06-10T00:02:16;6.63;;;2.83;;
15218;SDS011;15623;53.986;11.676;2023-06-10T00:07:23;7.93;;;3.10;;
15218;SDS011;15623;53.986;11.676;2023-06-10T00:09:51;4.67;;;2.97;;
15218;SDS011;15623;53.986;11.676;2023-06-10T00:12:22;8.13;;;3.10;;
15218;SDS011;15623;53.986;11.676;2023-06-10T00:14:50;8.60;;;3.50;;
15218;SDS011;15623;53.986;11.676;2023-06-10T00:17:32;4.60;;;2.80;;
15218;SDS011;15623;53.986;11.676;2023-06-10T00:20:10;8.90;;;3.40;;
15218;SDS011;15623;53.986;11.676;2023-06-10T00:22:39;6.47;;;2.90;;
15218;SDS011;15623;53.986;11.676;2023-06-10T00:25:12;5.70;;;3.07;;
15218;SDS011;15623;53.986;11.676;2023-06-10T00:27:42;7.87;;;3.20;;
15218;SDS011;15623;53.986;11.676;2023-06-10T00:32:55;4.93;;;2.80;;
15218;SDS011;15623;53.986;11.676;2023-06-10T00:35:30;7.73;;;2.80;;
15218;SDS011;15623;53.986;11.676;2023-06-10T00:38:01;7.03;;;3.23;;
15218;SDS011;15623;53.986;11.676;2023-06-10T00:40:33;8.00;;;2.70;;
15218;SDS011;15623;53.986;11.676;2023-06-10T00:43:03;5.23;;;2.70;;
15218;SDS011;15623;53.986;11.676;2023-06-10T00:48:14;5.17;;;2.80;;
15218;SDS011;15623;53.986;11.676;2023-06-10T00:50:42;9.17;;;2.87;;
15218;SDS011;15623;53.986;11.676;2023-06-10T00:53:09;4.67;;;3.10;;
15218;SDS011;15623;53.986;11.676;2023-06-10T00:55:40;6.47;;;2.50;;
15218;SDS011;15623;53.986;11.676;2023-06-10T00:58:15;4.27;;;2.90;;
15218;SDS011;15623;53.986;11.676;2023-06-10T01:00:44;4.23;;;2.50;;
15218;SDS011;15623;53.986;11.676;2023-06-10T01:03:18;9.17;;;2.60;;
15218;SDS011;15623;53.986;11.676;2023-06-10T01:05:47;4.90;;;2.50;;
15218;SDS011;15623;53.986;11.676;2023-06-10T01:08:26;7.20;;;2.87;;
15218;SDS011;15623;53.986;11.676;2023-06-10T01:11:04;4.80;;;3.23;;
15218;SDS011;15623;53.986;11.676;2023-06-10T01:13:47;5.97;;;3.00;;
15218;SDS011;15623;53.986;11.676;2023-06-10T01:18:55;4.13;;;2.27;;
15218;SDS011;15623;53.986;11.676;2023-06-10T01:21:24;9.23;;;3.00;;
15218;SDS011;15623;53.986;11.676;2023-06-10T01:23:52;4.10;;;2.23;;
15218;SDS011;15623;53.986;11.676;2023-06-10T01:26:24;5.10;;;2.70;;
15218;SDS011;15623;53.986;11.676;2023-06-10T01:31:33;6.13;;;2.50;;
15218;SDS011;15623;53.986;11.676;2023-06-10T01:34:09;7.03;;;2.67;;
15218;SDS011;15623;53.986;11.676;2023-06-10T01:39:20;5.13;;;2.50;;
15218;SDS011;15623;53.986;11.676;2023-06-10T01:41:59;5.57;;;2.40;;
15218;SDS011;15623;53.986;11.676;2023-06-10T01:44:32;7.17;;;2.10;;
15218;SDS011;15623;53.986;11.676;2023-06-10T01:47:00;6.47;;;2.30;;
15218;SDS011;15623;53.986;11.676;2023-06-10T01:52:02;7.07;;;2.43;;
15218;SDS011;15623;53.986;11.676;2023-06-10T01:54:35;7.40;;;2.67;;
15218;SDS011;15623;53.986;11.676;2023-06-10T01:57:04;8.23;;;2.90;;
15218;SDS011;15623;53.986;11.676;2023-06-10T01:59:33;5.47;;;2.20;;
15218;SDS011;15623;53.986;11.676;2023-06-10T02:02:02;7.87;;;2.50;;
15218;SDS011;15623;53.986;11.676;2023-06-10T02:04:32;4.13;;;2.10;;
15218;SDS011;15623;53.986;11.676;2023-06-10T02:07:00;6.83;;;2.20;;
15218;SDS011;15623;53.986;11.676;2023-06-10T02:09:46;5.03;;;2.40;;
15218;SDS011;15623;53.986;11.676;2023-06-10T02:12:15;6.17;;;2.30;;
15218;SDS011;15623;53.986;11.676;2023-06-10T02:14:42;9.10;;;2.23;;
15218;SDS011;15623;53.986;11.676;2023-06-10T02:17:10;6.83;;;2.27;;
15218;SDS011;15623;53.986;11.676;2023-06-10T02:19:41;7.10;;;2.83;;
15218;SDS011;15623;53.986;11.676;2023-06-10T02:22:10;5.50;;;2.23;;
15218;SDS011;15623;53.986;11.676;2023-06-10T02:24:49;5.87;;;2.13;;
15218;SDS011;15623;53.986;11.676;2023-06-10T02:27:18;8.83;;;2.30;;
15218;SDS011;15623;53.986;11.676;2023-06-10T02:29:52;6.20;;;2.30;;
15218;SDS011;15623;53.986;11.676;2023-06-10T02:32:21;6.77;;;2.17;;
15218;SDS011;15623;53.986;11.676;2023-06-10T02:34:49;11.57;;;2.70;;
15218;SDS011;15623;53.986;11.676;2023-06-10T02:37:24;5.03;;;2.00;;
15218;SDS011;15623;53.986;11.676;2023-06-10T02:39:55;6.97;;;2.77;;
15218;SDS011;15623;53.986;11.676;2023-06-10T02:42:23;7.63;;;2.30;;
15218;SDS011;15623;53.986;11.676;2023-06-10T02:47:41;6.57;;;2.00;;
15218;SDS011;15623;53.986;11.676;2023-06-10T02:50:11;8.47;;;2.30;;
15218;SDS011;15623;53.986;11.676;2023-06-10T02:52:48;6.07;;;2.30;;
15218;SDS011;15623;53.986;11.676;2023-06-10T02:55:19;5.57;;;2.20;;
15218;SDS011;15623;53.986;11.676;2023-06-10T02:57:58;5.97;;;2.50;;
15218;SDS011;15623;53.986;11.676;2023-06-10T03:00:29;4.87;;;2.37;;
15218;SDS011;15623;53.986;11.676;2023-06-10T03:03:03;7.97;;;2.30;;
15218;SDS011;15623;53.986;11.676;2023-06-10T03:05:36;6.87;;;2.53;;
15218;SDS011;15623;53.986;11.676;2023-06-10T03:08:04;7.03;;;2.50;;
15218;SDS011;15623;53.986;11.676;2023-06-10T03:10:37;4.53;;;2.20;;
15218;SDS011;15623;53.986;11.676;2023-06-10T03:13:15;6.13;;;2.20;;
15218;SDS011;15623;53.986;11.676;2023-06-10T03:15:42;6.17;;;2.20;;
15218;SDS011;15623;53.986;11.676;2023-06-10T03:18:13;6.47;;;2.40;;
15218;SDS011;15623;53.986;11.676;2023-06-10T03:20:46;5.87;;;2.07;;
15218;SDS011;15623;53.986;11.676;2023-06-10T03:25:55;7.37;;;2.20;;
15218;SDS011;15623;53.986;11.676;2023-06-10T03:28:27;5.23;;;2.03;;
15218;SDS011;15623;53.986;11.676;2023-06-10T03:30:56;9.93;;;2.40;;
15218;SDS011;15623;53.986;11.676;2023-06-10T03:33:30;6.27;;;1.90;;
15218;SDS011;15623;53.986;11.676;2023-06-10T03:38:34;8.40;;;2.30;;
15218;SDS011;15623;53.986;11.676;2023-06-10T03:41:05;7.17;;;2.40;;
15218;SDS011;15623;53.986;11.676;2023-06-10T03:43:49;8.60;;;2.37;;
15218;SDS011;15623;53.986;11.676;2023-06-10T03:46:28;7.07;;;2.40;;
15218;SDS011;15623;53.986;11.676;2023-06-10T03:48:55;7.20;;;2.23;;
15218;SDS011;15623;53.986;11.676;2023-06-10T03:51:27;9.03;;;2.20;;
15218;SDS011;15623;53.986;11.676;2023-06-10T03:56:33;4.43;;;2.40;;
15218;SDS011;15623;53.986;11.676;2023-06-10T03:59:01;4.10;;;1.97;;
15218;SDS011;15623;53.986;11.676;2023-06-10T04:04:04;7.83;;;2.20;;
15218;SDS011;15623;53.986;11.676;2023-06-10T04:06:34;5.23;;;2.27;;
15218;SDS011;15623;53.986;11.676;2023-06-10T04:09:02;7.07;;;3.23;;
15218;SDS011;15623;53.986;11.676;2023-06-10T04:11:41;6.70;;;2.20;;
15218;SDS011;15623;53.986;11.676;2023-06-10T04:14:08;7.00;;;2.30;;
15218;SDS011;15623;53.986;11.676;2023-06-10T04:16:42;4.97;;;2.00;;
15218;SDS011;15623;53.986;11.676;2023-06-10T04:24:20;5.10;;;2.65;;
15218;SDS011;15623;53.986;11.676;2023-06-10T04:26:50;5.95;;;2.10;;
15218;SDS011;15623;53.986;11.676;2023-06-10T04:29:19;6.22;;;2.42;;
15218;SDS011;15623;53.986;11.676;2023-06-10T04:31:52;6.40;;;2.05;;
15218;SDS011;15623;53.986;11.676;2023-06-10T04:34:22;4.53;;;2.03;;
15218;SDS011;15623;53.986;11.676;2023-06-10T04:36:50;4.80;;;2.22;;
15218;SDS011;15623;53.986;11.676;2023-06-10T04:41:55;4.88;;;2.40;;
15218;SDS011;15623;53.986;11.676;2023-06-10T04:44:23;5.47;;;2.17;;
15218;SDS011;15623;53.986;11.676;2023-06-10T04:49:21;4.75;;;2.33;;
15218;SDS011;15623;53.986;11.676;2023-06-10T04:51:51;3.55;;;2.03;;
15218;SDS011;15623;53.986;11.676;2023-06-10T04:54:18;6.10;;;2.15;;
15218;SDS011;15623;53.986;11.676;2023-06-10T04:56:47;2.83;;;2.10;;
15218;SDS011;15623;53.986;11.676;2023-06-10T04:59:20;3.63;;;2.25;;
15218;SDS011;15623;53.986;11.676;2023-06-10T05:02:03;5.63;;;2.35;;
15218;SDS011;15623;53.986;11.676;2023-06-10T05:04:31;2.53;;;2.10;;
15218;SDS011;15623;53.986;11.676;2023-06-10T05:07:01;5.03;;;2.00;;
15218;SDS011;15623;53.986;11.676;2023-06-10T05:09:29;4.10;;;2.03;;
15218;SDS011;15623;53.986;11.676;2023-06-10T05:12:00;6.22;;;2.00;;
15218;SDS011;15623;53.986;11.676;2023-06-10T05:14:39;4.85;;;2.53;;
15218;SDS011;15623;53.986;11.676;2023-06-10T05:17:15;3.75;;;2.00;;
15218;SDS011;15623;53.986;11.676;2023-06-10T05:22:12;6.95;;;2.10;;
15218;SDS011;15623;53.986;11.676;2023-06-10T05:24:47;3.83;;;2.20;;
15218;SDS011;15623;53.986;11.676;2023-06-10T05:27:17;5.18;;;2.53;;
15218;SDS011;15623;53.986;11.676;2023-06-10T05:29:49;3.80;;;2.20;;
15218;SDS011;15623;53.986;11.676;2023-06-10T05:32:16;6.97;;;2.20;;
15218;SDS011;15623;53.986;11.676;2023-06-10T05:34:44;6.10;;;2.40;;
15218;SDS011;15623;53.986;11.676;2023-06-10T05:37:19;4.20;;;2.35;;
15218;SDS011;15623;53.986;11.676;2023-06-10T05:39:48;4.53;;;2.50;;
15218;SDS011;15623;53.986;11.676;2023-06-10T05:42:21;6.07;;;2.22;;
15218;SDS011;15623;53.986;11.676;2023-06-10T05:44:54;5.70;;;2.40;;
15218;SDS011;15623;53.986;11.676;2023-06-10T05:47:24;3.70;;;2.00;;
15218;SDS011;15623;53.986;11.676;2023-06-10T05:50:02;4.70;;;2.25;;
15218;SDS011;15623;53.986;11.676;2023-06-10T05:52:34;6.22;;;2.50;;
15218;SDS011;15623;53.986;11.676;2023-06-10T05:55:02;4.65;;;2.47;;
15218;SDS011;15623;53.986;11.676;2023-06-10T05:57:41;4.10;;;2.10;;
15218;SDS011;15623;53.986;11.676;2023-06-10T06:00:11;6.53;;;2.72;;
15218;SDS011;15623;53.986;11.676;2023-06-10T06:02:45;6.60;;;2.83;;
15218;SDS011;15623;53.986;11.676;2023-06-10T06:05:19;4.53;;;2.40;;
15218;SDS011;15623;53.986;11.676;2023-06-10T06:07:47;5.15;;;2.47;;
15218;SDS011;15623;53.986;11.676;2023-06-10T06:12:46;6.80;;;2.53;;
15218;SDS011;15623;53.986;11.676;2023-06-10T06:15:23;5.55;;;2.35;;
15218;SDS011;15623;53.986;11.676;2023-06-10T06:17:56;4.53;;;2.40;;
15218;SDS011;15623;53.986;11.676;2023-06-10T06:20:24;8.98;;;2.42;;
15218;SDS011;15623;53.986;11.676;2023-06-10T06:25:29;5.97;;;2.45;;
15218;SDS011;15623;53.986;11.676;2023-06-10T06:27:58;6.78;;;2.58;;
15218;SDS011;15623;53.986;11.676;2023-06-10T06:30:39;6.45;;;2.80;;
15218;SDS011;15623;53.986;11.676;2023-06-10T06:33:09;5.60;;;2.60;;
15218;SDS011;15623;53.986;11.676;2023-06-10T06:35:39;4.82;;;2.70;;
15218;SDS011;15623;53.986;11.676;2023-06-10T06:38:09;6.53;;;2.38;;
15218;SDS011;15623;53.986;11.676;2023-06-10T06:40:41;6.07;;;2.78;;
15218;SDS011;15623;53.986;11.676;2023-06-10T06:43:10;6.40;;;3.08;;
15218;SDS011;15623;53.986;11.676;2023-06-10T06:48:49;5.90;;;2.75;;
15218;SDS011;15623;53.986;11.676;2023-06-10T06:51:30;6.22;;;2.72;;
15218;SDS011;15623;53.986;11.676;2023-06-10T06:54:38;4.38;;;2.60;;
15218;SDS011;15623;53.986;11.676;2023-06-10T07:00:05;5.22;;;2.60;;
15218;SDS011;15623;53.986;11.676;2023-06-10T07:02:36;3.65;;;2.42;;
15218;SDS011;15623;53.986;11.676;2023-06-10T07:05:07;5.10;;;2.70;;
15218;SDS011;15623;53.986;11.676;2023-06-10T07:07:52;5.03;;;2.58;;
15218;SDS011;15623;53.986;11.676;2023-06-10T07:10:34;6.25;;;2.78;;
15218;SDS011;15623;53.986;11.676;2023-06-10T07:15:45;5.78;;;2.92;;
15218;SDS011;15623;53.986;11.676;2023-06-10T07:18:26;3.08;;;2.40;;
15218;SDS011;15623;53.986;11.676;2023-06-10T07:21:03;6.60;;;2.70;;
15218;SDS011;15623;53.986;11.676;2023-06-10T07:23:36;3.90;;;2.67;;
15218;SDS011;15623;53.986;11.676;2023-06-10T07:29:03;9.65;;;3.40;;
15218;SDS011;15623;53.986;11.676;2023-06-10T07:31:46;4.50;;;2.55;;
15218;SDS011;15623;53.986;11.676;2023-06-10T07:34:17;5.47;;;2.67;;
15218;SDS011;15623;53.986;11.676;2023-06-10T07:36:55;3.35;;;2.60;;
15218;SDS011;15623;53.986;11.676;2023-06-10T07:42:12;6.30;;;2.78;;
15218;SDS011;15623;53.986;11.676;2023-06-10T07:44:43;7.07;;;3.00;;
15218;SDS011;15623;53.986;11.676;2023-06-10T07:50:16;5.65;;;2.88;;
15218;SDS011;15623;53.986;11.676;2023-06-10T07:52:59;3.63;;;3.10;;
15218;SDS011;15623;53.986;11.676;2023-06-10T07:55:32;4.90;;;3.00;;
15218;SDS011;15623;53.986;11.676;2023-06-10T07:58:08;6.80;;;3.28;;
15218;SDS011;15623;53.986;11.676;2023-06-10T08:00:46;5.35;;;2.70;;
15218;SDS011;15623;53.986;11.676;2023-06-10T08:03:16;4.00;;;2.55;;
15218;SDS011;15623;53.986;11.676;2023-06-10T08:05:44;6.20;;;3.30;;
15218;SDS011;15623;53.986;11.676;2023-06-10T08:11:17;4.82;;;2.95;;
15218;SDS011;15623;53.986;11.676;2023-06-10T08:13:55;7.47;;;2.95;;
15218;SDS011;15623;53.986;11.676;2023-06-10T08:16:32;4.72;;;2.95;;
15218;SDS011;15623;53.986;11.676;2023-06-10T08:19:00;4.22;;;2.95;;
15218;SDS011;15623;53.986;11.676;2023-06-10T08:21:28;5.35;;;2.85;;
15218;SDS011;15623;53.986;11.676;2023-06-10T08:23:58;6.53;;;3.05;;
15218;SDS011;15623;53.986;11.676;2023-06-10T08:26:38;9.05;;;3.38;;
15218;SDS011;15623;53.986;11.676;2023-06-10T08:29:07;3.35;;;3.03;;
15218;SDS011;15623;53.986;11.676;2023-06-10T08:31:45;4.82;;;3.22;;
15218;SDS011;15623;53.986;11.676;2023-06-10T08:34:18;5.75;;;3.22;;
15218;SDS011;15623;53.986;11.676;2023-06-10T08:36:57;6.82;;;3.20;;
15218;SDS011;15623;53.986;11.676;2023-06-10T08:39:25;6.55;;;3.33;;
15218;SDS011;15623;53.986;11.676;2023-06-10T08:42:00;7.63;;;4.05;;
15218;SDS011;15623;53.986;11.676;2023-06-10T08:44:33;4.97;;;3.67;;
15218;SDS011;15623;53.986;11.676;2023-06-10T08:47:13;3.75;;;3.28;;
15218;SDS011;15623;53.986;11.676;2023-06-10T08:49:41;5.88;;;3.30;;
15218;SDS011;15623;53.986;11.676;2023-06-10T08:54:43;5.95;;;3.67;;
15218;SDS011;15623;53.986;11.676;2023-06-10T08:57:22;7.00;;;3.50;;
15218;SDS011;15623;53.986;11.676;2023-06-10T08:59:50;4.97;;;3.60;;
15218;SDS011;15623;53.986;11.676;2023-06-10T09:02:18;6.40;;;3.53;;
15218;SDS011;15623;53.986;11.676;2023-06-10T09:04:48;5.22;;;3.33;;
15218;SDS011;15623;53.986;11.676;2023-06-10T09:07:18;4.38;;;3.45;;
15218;SDS011;15623;53.986;11.676;2023-06-10T09:09:46;6.60;;;3.88;;
15218;SDS011;15623;53.986;11.676;2023-06-10T09:14:50;6.63;;;3.72;;
15218;SDS011;15623;53.986;11.676;2023-06-10T09:17:21;7.78;;;3.67;;
15218;SDS011;15623;53.986;11.676;2023-06-10T09:19:51;6.80;;;3.53;;
15218;SDS011;15623;53.986;11.676;2023-06-10T09:22:21;3.90;;;3.42;;
15218;SDS011;15623;53.986;11.676;2023-06-10T09:24:49;6.72;;;3.72;;
15218;SDS011;15623;53.986;11.676;2023-06-10T09:27:23;7.95;;;3.70;;
15218;SDS011;15623;53.986;11.676;2023-06-10T09:29:53;4.53;;;3.63;;
15218;SDS011;15623;53.986;11.676;2023-06-10T09:32:23;4.30;;;3.33;;
15218;SDS011;15623;53.986;11.676;2023-06-10T09:34:51;6.15;;;3.55;;
15218;SDS011;15623;53.986;11.676;2023-06-10T09:37:21;8.60;;;3.50;;
15218;SDS011;15623;53.986;11.676;2023-06-10T09:40:06;5.82;;;3.72;;
15218;SDS011;15623;53.986;11.676;2023-06-10T09:42:42;8.00;;;3.95;;
15218;SDS011;15623;53.986;11.676;2023-06-10T09:45:13;5.07;;;3.60;;
15218;SDS011;15623;53.986;11.676;2023-06-10T09:47:41;6.18;;;3.50;;
15218;SDS011;15623;53.986;11.676;2023-06-10T09:50:09;4.88;;;3.55;;
15218;SDS011;15623;53.986;11.676;2023-06-10T09:55:11;5.15;;;3.42;;
15218;SDS011;15623;53.986;11.676;2023-06-10T10:00:15;6.05;;;3.90;;
15218;SDS011;15623;53.986;11.676;2023-06-10T10:02:46;5.75;;;3.65;;
15218;SDS011;15623;53.986;11.676;2023-06-10T10:05:14;9.55;;;3.97;;
15218;SDS011;15623;53.986;11.676;2023-06-10T10:07:50;6.75;;;4.00;;
15218;SDS011;15623;53.986;11.676;2023-06-10T10:12:50;8.25;;;3.80;;
15218;SDS011;15623;53.986;11.676;2023-06-10T10:15:19;4.65;;;3.25;;
15218;SDS011;15623;53.986;11.676;2023-06-10T10:17:52;5.30;;;4.15;;
15218;SDS011;15623;53.986;11.676;2023-06-10T10:20:22;5.68;;;4.40;;
15218;SDS011;15623;53.986;11.676;2023-06-10T10:22:52;5.53;;;3.55;;
15218;SDS011;15623;53.986;11.676;2023-06-10T10:25:32;12.00;;;4.40;;
15218;SDS011;15623;53.986;11.676;2023-06-10T10:28:05;6.40;;;3.95;;
15218;SDS011;15623;53.986;11.676;2023-06-10T10:30:50;4.05;;;3.53;;
15218;SDS011;15623;53.986;11.676;2023-06-10T10:33:21;4.55;;;3.50;;
15218;SDS011;15623;53.986;11.676;2023-06-10T10:35:49;6.63;;;3.65;;
15218;SDS011;15623;53.986;11.676;2023-06-10T10:38:17;5.53;;;3.78;;
15218;SDS011;15623;53.986;11.676;2023-06-10T10:40:56;7.72;;;4.07;;
15218;SDS011;15623;53.986;11.676;2023-06-10T10:43:27;9.35;;;4.00;;
15218;SDS011;15623;53.986;11.676;2023-06-10T10:46:08;5.05;;;3.75;;
15218;SDS011;15623;53.986;11.676;2023-06-10T10:51:17;7.22;;;3.80;;
15218;SDS011;15623;53.986;11.676;2023-06-10T10:53:57;4.60;;;3.70;;
15218;SDS011;15623;53.986;11.676;2023-06-10T10:56:37;5.55;;;3.92;;
15218;SDS011;15623;53.986;11.676;2023-06-10T10:59:12;6.28;;;3.90;;
15218;SDS011;15623;53.986;11.676;2023-06-10T11:01:44;8.48;;;4.30;;
15218;SDS011;15623;53.986;11.676;2023-06-10T11:04:13;14.20;;;4.20;;
15218;SDS011;15623;53.986;11.676;2023-06-10T11:06:40;7.68;;;3.78;;
15218;SDS011;15623;53.986;11.676;2023-06-10T11:09:25;4.20;;;3.80;;
15218;SDS011;15623;53.986;11.676;2023-06-10T11:12:01;5.55;;;4.22;;
15218;SDS011;15623;53.986;11.676;2023-06-10T11:14:29;6.18;;;4.00;;
15218;SDS011;15623;53.986;11.676;2023-06-10T11:17:09;6.85;;;3.97;;
15218;SDS011;15623;53.986;11.676;2023-06-10T11:19:45;6.68;;;3.90;;
15218;SDS011;15623;53.986;11.676;2023-06-10T11:22:16;6.30;;;3.90;;
15218;SDS011;15623;53.986;11.676;2023-06-10T11:24:55;4.88;;;3.78;;
15218;SDS011;15623;53.986;11.676;2023-06-10T11:27:36;5.50;;;3.80;;
15218;SDS011;15623;53.986;11.676;2023-06-10T11:32:52;7.20;;;3.78;;
15218;SDS011;15623;53.986;11.676;2023-06-10T11:35:20;6.90;;;3.70;;
15218;SDS011;15623;53.986;11.676;2023-06-10T11:37:49;4.32;;;3.92;;
15218;SDS011;15623;53.986;11.676;2023-06-10T11:40:19;4.78;;;3.72;;
15218;SDS011;15623;53.986;11.676;2023-06-10T11:42:47;5.10;;;3.70;;
15218;SDS011;15623;53.986;11.676;2023-06-10T11:45:17;7.55;;;3.90;;
15218;SDS011;15623;53.986;11.676;2023-06-10T11:47:56;5.30;;;3.85;;
15218;SDS011;15623;53.986;11.676;2023-06-10T11:50:28;6.47;;;4.25;;
15218;SDS011;15623;53.986;11.676;2023-06-10T11:53:02;9.13;;;4.35;;
15218;SDS011;15623;53.986;11.676;2023-06-10T11:55:41;5.82;;;4.10;;
15218;SDS011;15623;53.986;11.676;2023-06-10T11:58:12;5.90;;;4.20;;
15218;SDS011;15623;53.986;11.676;2023-06-10T12:03:36;4.60;;;3.80;;
15218;SDS011;15623;53.986;11.676;2023-06-10T12:06:04;4.80;;;3.78;;
15218;SDS011;15623;53.986;11.676;2023-06-10T12:08:41;5.43;;;4.03;;
15218;SDS011;15623;53.986;11.676;2023-06-10T12:11:16;6.30;;;4.10;;
15218;SDS011;15623;53.986;11.676;2023-06-10T12:13:48;4.95;;;3.70;;
15218;SDS011;15623;53.986;11.676;2023-06-10T12:16:17;5.40;;;4.15;;
15218;SDS011;15623;53.986;11.676;2023-06-10T12:18:48;6.32;;;3.95;;
15218;SDS011;15623;53.986;11.676;2023-06-10T12:24:02;4.30;;;3.90;;
15218;SDS011;15623;53.986;11.676;2023-06-10T12:26:41;6.53;;;3.90;;
15218;SDS011;15623;53.986;11.676;2023-06-10T12:29:21;5.53;;;3.90;;
15218;SDS011;15623;53.986;11.676;2023-06-10T12:31:58;5.43;;;3.85;;
15218;SDS011;15623;53.986;11.676;2023-06-10T12:34:39;5.78;;;3.83;;
15218;SDS011;15623;53.986;11.676;2023-06-10T12:37:13;7.38;;;3.78;;
15218;SDS011;15623;53.986;11.676;2023-06-10T12:39:41;8.32;;;3.80;;
15218;SDS011;15623;53.986;11.676;2023-06-10T12:42:09;5.90;;;3.78;;
15218;SDS011;15623;53.986;11.676;2023-06-10T12:47:09;4.25;;;3.85;;
15218;SDS011;15623;53.986;11.676;2023-06-10T12:49:42;5.75;;;3.80;;
15218;SDS011;15623;53.986;11.676;2023-06-10T12:52:15;5.53;;;3.90;;
15218;SDS011;15623;53.986;11.676;2023-06-10T12:54:50;6.47;;;3.95;;
15218;SDS011;15623;53.986;11.676;2023-06-10T12:57:19;5.30;;;3.63;;
15218;SDS011;15623;53.986;11.676;2023-06-10T12:59:47;6.00;;;3.88;;
15218;SDS011;15623;53.986;11.676;2023-06-10T13:02:19;5.25;;;3.97;;
15218;SDS011;15623;53.986;11.676;2023-06-10T13:04:53;4.00;;;3.60;;
15218;SDS011;15623;53.986;11.676;2023-06-10T13:10:14;4.03;;;3.70;;
15218;SDS011;15623;53.986;11.676;2023-06-10T13:12:44;4.32;;;3.83;;
15218;SDS011;15623;53.986;11.676;2023-06-10T13:18:00;7.28;;;4.47;;
15218;SDS011;15623;53.986;11.676;2023-06-10T13:20:31;4.78;;;3.97;;
15218;SDS011;15623;53.986;11.676;2023-06-10T13:22:59;5.63;;;4.25;;
15218;SDS011;15623;53.986;11.676;2023-06-10T13:25:31;4.30;;;3.90;;
15218;SDS011;15623;53.986;11.676;2023-06-10T13:28:01;7.22;;;3.90;;
15218;SDS011;15623;53.986;11.676;2023-06-10T13:30:31;4.60;;;3.88;;
15218;SDS011;15623;53.986;11.676;2023-06-10T13:33:04;4.43;;;4.03;;
15218;SDS011;15623;53.986;11.676;2023-06-10T13:38:20;6.53;;;3.60;;
15218;SDS011;15623;53.986;11.676;2023-06-10T13:43:47;3.90;;;3.60;;
15218;SDS011;15623;53.986;11.676;2023-06-10T13:46:18;7.70;;;3.50;;
15218;SDS011;15623;53.986;11.676;2023-06-10T13:48:48;4.85;;;4.00;;
15218;SDS011;15623;53.986;11.676;2023-06-10T13:51:18;7.43;;;3.80;;
15218;SDS011;15623;53.986;11.676;2023-06-10T13:53:55;3.80;;;3.42;;
15218;SDS011;15623;53.986;11.676;2023-06-10T13:56:22;7.00;;;3.15;;
15218;SDS011;15623;53.986;11.676;2023-06-10T13:58:51;3.60;;;3.20;;
15218;SDS011;15623;53.986;11.676;2023-06-10T14:01:19;4.15;;;3.42;;
15218;SDS011;15623;53.986;11.676;2023-06-10T14:03:49;3.85;;;3.53;;
15218;SDS011;15623;53.986;11.676;2023-06-10T14:06:18;7.60;;;3.83;;
15218;SDS011;15623;53.986;11.676;2023-06-10T14:08:46;3.45;;;3.15;;
15218;SDS011;15623;53.986;11.676;2023-06-10T14:11:23;7.18;;;3.50;;
15218;SDS011;15623;53.986;11.676;2023-06-10T14:13:55;4.18;;;3.53;;
15218;SDS011;15623;53.986;11.676;2023-06-10T14:16:28;3.63;;;3.33;;
15218;SDS011;15623;53.986;11.676;2023-06-10T14:18:58;3.83;;;3.42;;
15218;SDS011;15623;53.986;11.676;2023-06-10T14:21:25;8.13;;;3.38;;
15218;SDS011;15623;53.986;11.676;2023-06-10T14:23:54;3.97;;;3.58;;
15218;SDS011;15623;53.986;11.676;2023-06-10T14:26:41;6.53;;;3.30;;
15218;SDS011;15623;53.986;11.676;2023-06-10T14:29:08;5.07;;;3.33;;
15218;SDS011;15623;53.986;11.676;2023-06-10T14:36:51;9.02;;;3.40;;
15218;SDS011;15623;53.986;11.676;2023-06-10T14:39:23;7.35;;;3.30;;
15218;SDS011;15623;53.986;11.676;2023-06-10T14:41:56;4.43;;;3.38;;
15218;SDS011;15623;53.986;11.676;2023-06-10T14:44:30;5.95;;;3.28;;
15218;SDS011;15623;53.986;11.676;2023-06-10T14:46:58;7.63;;;3.47;;
15218;SDS011;15623;53.986;11.676;2023-06-10T14:49:27;3.85;;;3.50;;
15218;SDS011;15623;53.986;11.676;2023-06-10T14:54:36;4.40;;;2.90;;
15218;SDS011;15623;53.986;11.676;2023-06-10T14:57:06;7.32;;;3.72;;
15218;SDS011;15623;53.986;11.676;2023-06-10T14:59:34;7.28;;;3.30;;
15218;SDS011;15623;53.986;11.676;2023-06-10T15:02:04;4.40;;;3.40;;
15218;SDS011;15623;53.986;11.676;2023-06-10T15:04:31;6.88;;;3.75;;
15218;SDS011;15623;53.986;11.676;2023-06-10T15:07:01;6.05;;;3.50;;
15218;SDS011;15623;53.986;11.676;2023-06-10T15:09:29;5.90;;;3.72;;
15218;SDS011;15623;53.986;11.676;2023-06-10T15:14:32;7.40;;;3.40;;
15218;SDS011;15623;53.986;11.676;2023-06-10T15:17:11;11.75;;;3.78;;
15218;SDS011;15623;53.986;11.676;2023-06-10T15:19:39;7.55;;;3.67;;
15218;SDS011;15623;53.986;11.676;2023-06-10T15:22:15;8.77;;;4.05;;
15218;SDS011;15623;53.986;11.676;2023-06-10T15:24:47;8.45;;;3.60;;
15218;SDS011;15623;53.986;11.676;2023-06-10T15:27:17;9.30;;;3.80;;
15218;SDS011;15623;53.986;11.676;2023-06-10T15:29:52;6.65;;;3.47;;
15218;SDS011;15623;53.986;11.676;2023-06-10T15:32:27;9.15;;;3.63;;
15218;SDS011;15623;53.986;11.676;2023-06-10T15:37:34;36.22;;;4.40;;
15218;SDS011;15623;53.986;11.676;2023-06-10T15:40:05;7.80;;;3.10;;
15218;SDS011;15623;53.986;11.676;2023-06-10T15:42:33;6.05;;;3.15;;
15218;SDS011;15623;53.986;11.676;2023-06-10T15:45:02;4.68;;;3.40;;
15218;SDS011;15623;53.986;11.676;2023-06-10T15:47:29;7.57;;;3.45;;
15218;SDS011;15623;53.986;11.676;2023-06-10T15:49:56;3.78;;;3.47;;
15218;SDS011;15623;53.986;11.676;2023-06-10T15:52:26;6.35;;;3.33;;
15218;SDS011;15623;53.986;11.676;2023-06-10T15:57:45;4.72;;;3.40;;
15218;SDS011;15623;53.986;11.676;2023-06-10T16:00:17;8.18;;;3.35;;
15218;SDS011;15623;53.986;11.676;2023-06-10T16:02:44;5.75;;;3.00;;
15218;SDS011;15623;53.986;11.676;2023-06-10T16:05:13;6.15;;;3.22;;
15218;SDS011;15623;53.986;11.676;2023-06-10T16:07:42;5.65;;;3.00;;
15218;SDS011;15623;53.986;11.676;2023-06-10T16:10:16;4.00;;;3.03;;
15218;SDS011;15623;53.986;11.676;2023-06-10T16:12:44;5.85;;;3.08;;
15218;SDS011;15623;53.986;11.676;2023-06-10T16:15:14;4.55;;;3.10;;
15218;SDS011;15623;53.986;11.676;2023-06-10T16:17:43;4.63;;;2.83;;
15218;SDS011;15623;53.986;11.676;2023-06-10T16:20:11;4.40;;;2.83;;
15218;SDS011;15623;53.986;11.676;2023-06-10T16:22:44;3.00;;;2.72;;
15218;SDS011;15623;53.986;11.676;2023-06-10T16:25:13;5.47;;;2.50;;
15218;SDS011;15623;53.986;11.676;2023-06-10T16:27:49;5.72;;;2.90;;
15218;SDS011;15623;53.986;11.676;2023-06-10T16:32:48;7.13;;;2.85;;
15218;SDS011;15623;53.986;11.676;2023-06-10T16:35:17;6.30;;;2.70;;
15218;SDS011;15623;53.986;11.676;2023-06-10T16:40:17;3.65;;;2.90;;
15218;SDS011;15623;53.986;11.676;2023-06-10T16:42:44;6.38;;;3.20;;
15218;SDS011;15623;53.986;11.676;2023-06-10T16:45:17;17.25;;;3.13;;
15218;SDS011;15623;53.986;11.676;2023-06-10T16:47:51;4.85;;;2.78;;
15218;SDS011;15623;53.986;11.676;2023-06-10T16:50:18;13.25;;;2.90;;
15218;SDS011;15623;53.986;11.676;2023-06-10T16:52:47;4.97;;;2.78;;
15218;SDS011;15623;53.986;11.676;2023-06-10T16:55:26;7.85;;;2.85;;
15218;SDS011;15623;53.986;11.676;2023-06-10T17:00:42;6.88;;;2.60;;
15218;SDS011;15623;53.986;11.676;2023-06-10T17:03:15;3.90;;;2.58;;
15218;SDS011;15623;53.986;11.676;2023-06-10T17:05:49;4.57;;;2.72;;
15218;SDS011;15623;53.986;11.676;2023-06-10T17:08:17;3.65;;;2.40;;
15218;SDS011;15623;53.986;11.676;2023-06-10T17:10:45;8.52;;;2.63;;
15218;SDS011;15623;53.986;11.676;2023-06-10T17:13:12;5.13;;;2.40;;